Latest Weather Observations for Mount Hotham Airport

IDV60801

Issued at 7:22 am EDT Saturday 28 November 2020 (issued every 10 minutes, with the page automatically refreshed every 10 minutes)

About weather observations | Map of weather stations | Latest weather observations for VIC | Other Formats
Station Details ID: 083055 Name: MOUNT HOTHAM AIRPORT Lat: -37.05 Lon: 147.33 Height: 1295.4 m
Data from the previous 72 hours. | See also: Recent months at Mount Hotham Airport
Date/Time
EDT
Temp
°C
App
Temp
°C
Dew
Point
°C
Rel
Hum
%
Delta-T
°C
Wind Press
QNH
hPa
Press
MSL
hPa
Rain since
9am
mm
Dir  Spd
km/h
Gust
km/h
Spd
kts
Gust
kts
28/07:00am 21.0 19.1 6.9 40 7.7 NNW 6 7 3 4 1013.7 1010.2 0.0
28/06:30am 20.1 17.7 7.1 43 7.1 NNW 9 13 5 7 1013.9 1010.4 0.0
28/06:00am 20.1 17.1 6.1 40 7.5 NNW 11 20 6 11 1013.7 1010.2 0.0
28/05:30am 19.5 17.8 5.9 41 7.2 NE 4 7 2 4 1013.9 1010.4 0.0
28/05:00am 21.0 17.2 5.8 37 8.1 NW 15 24 8 13 1014.0 1010.6 0.0
28/04:30am 19.7 16.2 5.4 39 7.5 NW 13 19 7 10 1013.4 1009.9 0.0
28/04:00am 17.0 14.2 6.8 51 5.4 NNW 11 13 6 7 1013.6 1010.1 0.0
28/03:30am 18.5 15.3 7.0 47 6.2 NNW 13 17 7 9 1013.8 1010.3 0.0
28/03:00am 18.9 15.0 7.0 46 6.4 NNW 17 20 9 11 1014.4 1010.9 0.0
28/02:30am 19.5 15.1 6.6 43 6.9 WNW 19 26 10 14 1015.0 1011.5 0.0
28/02:00am 20.9 15.8 6.1 38 7.9 W 22 33 12 18 1015.7 1012.3 0.0
28/01:30am 20.4 15.7 6.0 39 7.7 NW 20 28 11 15 1015.3 1011.8 0.0
28/01:00am 20.3 16.0 5.1 37 8.0 NW 17 24 9 13 1015.3 1011.8 0.0
28/12:30am 20.1 16.4 4.6 36 8.0 NNW 13 20 7 11 1015.6 1012.2 0.0
28/12:00am 19.5 15.8 4.4 37 7.8 NNW 13 17 7 9 1016.0 1012.5 0.0
 
Date/Time
EDT
Temp
°C
App
Temp
°C
Dew
Point
°C
Rel
Hum
%
Delta-T
°C
Wind Press
QNH
hPa
Press
MSL
hPa
Rain since
9am
mm
Dir  Spd
km/h
Gust
km/h
Spd
kts
Gust
kts
27/11:30pm 19.6 16.4 5.3 39 7.5 NNW 11 15 6 8 1016.2 1012.8 0.0
27/11:00pm 19.1 16.1 5.9 42 7.0 NNW 11 15 6 8 1016.5 1013.1 0.0
27/10:30pm 19.3 16.0 6.4 43 6.9 NNW 13 17 7 9 1016.7 1013.2 0.0
27/10:00pm 19.0 16.0 6.2 43 6.8 NNW 11 17 6 9 1016.9 1013.5 0.0
27/09:30pm 17.4 15.5 7.5 52 5.3 NNW 7 11 4 6 1017.0 1013.6 0.0
27/09:00pm 18.7 16.8 7.5 48 6.1 NNW 7 13 4 7 1017.1 1013.7 0.0
27/08:30pm 18.8 17.1 7.6 48 6.1 WNW 6 9 3 5 1017.6 1014.2 0.0
27/08:00pm 20.4 17.0 7.7 44 7.0 NW 15 20 8 11 1017.6 1014.2 0.0
27/07:30pm 21.8 18.4 7.6 40 7.9 NW 15 20 8 11 1017.8 1014.4 0.0
27/07:00pm 22.3 17.9 7.3 38 8.3 NW 20 30 11 16 1017.6 1014.2 0.0
27/06:30pm 23.2 19.1 7.7 37 8.6 NW 19 28 10 15 1017.3 1013.9 0.0
27/06:00pm 23.3 18.3 6.6 34 9.1 NW 22 32 12 17 1017.0 1013.6 0.0
27/05:30pm 24.0 20.2 7.6 35 9.2 WNW 17 26 9 14 1017.2 1013.8 0.0
27/05:00pm 24.1 19.9 5.9 31 9.9 WNW 17 28 9 15 1017.4 1014.1 0.0
27/04:30pm 24.5 19.9 8.0 35 9.3 WNW 22 39 12 21 1017.6 1014.2 0.0
27/04:00pm 23.7 17.1 6.0 32 9.6 WNW 30 48 16 26 1017.7 1014.3 0.0
27/03:30pm 24.2 17.6 6.0 31 9.9 WNW 30 54 16 29 1017.8 1014.4 0.0
27/03:02pm 24.2 17.2 6.9 33 9.6 WNW 33 54 18 29 1017.9 1014.5 0.0
27/03:00pm 24.1 16.5 5.9 31 9.9 WNW 35 50 19 27 1017.9 1014.5 0.0
27/02:44pm 24.4 18.2 6.2 31 10.0 WNW 28 46 15 25 1018.0 1014.6 0.0
27/02:30pm 24.1 16.7 6.8 33 9.5 WNW 35 48 19 26 1018.0 1014.6 0.0
27/02:00pm 24.2 19.1 6.0 31 9.9 WNW 22 39 12 21 1018.4 1015.0 0.0
27/01:30pm 23.1 17.6 7.6 37 8.6 NW 26 44 14 24 1018.4 1015.0 0.0
27/01:08pm 22.8 16.9 7.4 37 8.5 WNW 28 46 15 25 1018.4 1015.0 0.0
27/01:00pm 23.1 16.4 7.2 36 8.8 WNW 32 43 17 23 1018.4 1015.0 0.0
27/12:36pm 22.6 15.7 6.4 35 8.8 NW 32 50 17 27 1018.5 1015.1 0.0
27/12:30pm 22.9 16.2 7.4 37 8.6 NW 32 48 17 26 1018.5 1015.1 0.0
27/12:05pm 23.1 16.5 6.0 33 9.3 WNW 30 50 16 27 - - 0.0
27/12:00pm 22.4 16.9 5.8 34 8.9 WNW 24 43 13 23 - - 0.0
27/11:30am 22.6 15.7 4.6 31 9.5 WNW 30 48 16 26 - - 0.0
27/11:25am 22.3 15.7 4.4 31 9.4 WNW 28 48 15 26 - - 0.0
27/11:00am 22.1 16.0 4.7 32 9.1 NW 26 39 14 21 - - 0.0
27/10:30am 21.6 15.0 4.2 32 9.0 NW 28 44 15 24 - - 0.0
27/10:00am 21.5 15.4 2.7 29 9.5 NW 24 33 13 18 - - 0.0
27/09:30am 20.9 14.1 3.2 31 9.0 NW 28 41 15 22 - - 0.0
27/09:06am 20.2 12.8 1.6 29 9.1 NW 30 48 16 26 - - 0.0
27/09:00am 20.1 12.7 2.0 30 8.9 NW 30 44 16 24 - - 0.2
27/08:30am 19.3 11.3 0.4 28 9.0 NW 32 44 17 24 - - 0.2
27/08:00am 18.8 10.7 -0.1 28 8.9 NW 32 43 17 23 1017.4 1014.1 0.2
27/07:30am 17.9 10.4 1.0 32 8.0 NW 30 37 16 20 - - 0.2
27/07:00am 16.6 9.7 0.3 33 7.6 NW 26 37 14 20 - - 0.2
27/06:30am 15.3 8.0 -0.1 35 7.0 NW 28 37 15 20 - - 0.2
27/06:00am 11.7 7.6 8.6 81 1.6 NW 20 33 11 18 - - 0.2
27/05:58am 11.4 8.2 11.2 99 0.1 NW 19 26 10 14 - - 0.2
27/05:30am 6.4 4.4 6.4 100 0.0 NW 6 6 3 3 - - 0.2
27/05:00am 7.3 5.5 7.3 100 0.0 WNW 6 7 3 4 - - 0.0
27/04:30am 7.5 5.8 7.5 100 0.0 NNW 6 9 3 5 - - 0.0
27/04:00am 8.8 7.2 8.8 100 0.0 N 7 9 4 5 - - 0.0
27/03:30am 9.2 7.9 9.2 100 0.0 NNW 6 7 3 4 - - 0.0
27/03:00am 9.2 7.7 9.2 100 0.0 NNW 7 9 4 5 - - 0.0
27/02:30am 9.6 8.4 9.6 100 0.0 N 6 9 3 5 - - 0.0
27/02:00am 9.7 8.3 9.7 100 0.0 NNE 7 9 4 5 - - 0.0
27/01:30am 9.9 8.8 9.9 100 0.0 N 6 9 3 5 - - 0.0
27/01:00am 9.9 8.6 9.9 100 0.0 N 7 9 4 5 - - 0.0
27/12:30am 10.1 8.8 10.1 100 0.0 E 7 9 4 5 - - 0.0
27/12:00am 10.0 8.3 10.0 100 0.0 ESE 9 11 5 6 - - 0.0
 
Date/Time
EDT
Temp
°C
App
Temp
°C
Dew
Point
°C
Rel
Hum
%
Delta-T
°C
Wind Press
QNH
hPa
Press
MSL
hPa
Rain since
9am
mm
Dir  Spd
km/h
Gust
km/h
Spd
kts
Gust
kts
26/11:30pm 10.1 8.1 10.1 100 0.0 ESE 11 11 6 6 - - 0.0
26/11:00pm 10.7 9.2 10.7 100 0.0 E 9 11 5 6 - - 0.0
26/10:30pm 10.7 9.6 10.7 100 0.0 E 7 11 4 6 - - 0.0
26/10:00pm 10.5 9.9 10.5 100 0.0 SE 4 7 2 4 - - 0.0
26/09:30pm 10.4 8.1 10.4 100 0.0 ESE 13 15 7 8 - - 0.0
26/09:00pm 10.7 8.1 10.7 100 0.0 ESE 15 17 8 9 - - 0.0
26/08:30pm 11.1 9.0 11.1 100 0.0 SSE 13 17 7 9 - - 0.0
26/08:00pm 11.3 10.4 11.3 100 0.0 S 7 13 4 7 1019.0 1015.7 0.0
26/07:30pm 11.5 10.2 11.3 99 0.1 S 9 13 5 7 1019.0 1015.7 0.0
26/07:00pm 12.2 10.7 12.0 99 0.1 SSW 11 17 6 9 1018.6 1015.2 0.0
26/06:45pm 12.8 11.4 12.3 97 0.3 S 11 15 6 8 1018.5 1015.1 0.0
26/06:30pm 13.4 11.2 12.1 92 0.7 SSW 15 20 8 11 1018.2 1014.9 0.0
26/06:29pm 13.4 11.2 12.1 92 0.7 SSW 15 20 8 11 1018.2 1014.9 0.0
26/06:00pm 16.1 14.3 12.1 77 2.3 SSE 13 19 7 10 1017.8 1014.4 0.0
26/05:30pm 17.7 16.0 12.6 72 3.0 S 13 19 7 10 1017.4 1014.1 0.0
26/05:00pm 19.2 17.4 13.2 68 3.6 S 15 19 8 10 1017.2 1013.8 0.0
26/04:30pm 19.9 18.0 13.1 65 4.1 S 15 24 8 13 1017.1 1013.7 0.0
26/04:00pm 23.8 21.4 8.6 38 8.6 WSW 11 20 6 11 1016.9 1013.5 0.0
26/03:30pm 22.0 17.9 8.5 42 7.6 WNW 20 33 11 18 1016.9 1013.5 0.0
26/03:00pm 23.4 19.1 7.9 37 8.7 W 20 30 11 16 1017.1 1013.7 0.0
26/02:30pm 21.4 17.2 7.3 40 7.7 WNW 19 35 10 19 1017.0 1013.6 0.0
26/02:00pm 22.2 18.0 8.3 41 7.8 W 20 30 11 16 - - 0.0
26/01:30pm 23.0 18.3 7.9 38 8.4 WNW 22 43 12 23 - - 0.0
26/01:00pm 23.0 18.5 8.7 40 8.1 W 22 37 12 20 1017.2 1013.8 0.0
26/12:30pm 22.8 17.8 8.1 39 8.2 WNW 24 37 13 20 - - 0.0
26/12:00pm 22.1 17.1 7.9 40 7.9 WNW 24 41 13 22 1017.2 1013.8 0.0
26/11:30am 22.0 17.0 9.5 45 7.2 WNW 26 48 14 26 1017.2 1013.8 0.0
26/11:23am 21.3 14.9 6.8 39 7.9 WNW 30 48 16 26 1017.2 1013.8 0.0
26/11:00am 21.9 16.6 8.4 42 7.6 WNW 26 41 14 22 - - 0.0
26/10:41am 20.8 14.8 7.1 41 7.5 WNW 28 48 15 26 - - 0.0
26/10:30am 21.1 16.0 7.7 42 7.4 WNW 24 37 13 20 - - 0.0
26/10:00am 21.4 18.0 9.0 45 7.0 WNW 17 30 9 16 - - 0.0
26/09:30am 20.9 17.6 9.5 48 6.5 NW 17 32 9 17 - - 0.0
26/09:00am 19.7 15.2 8.4 48 6.3 WNW 22 32 12 17 - - 0.0
26/08:30am 19.3 13.8 9.2 52 5.7 WNW 28 41 15 22 - - 0.0
26/08:00am 18.8 13.8 8.2 50 5.8 WNW 24 37 13 20 - - 0.0
26/07:30am 18.1 12.3 7.8 51 5.6 WNW 28 43 15 23 - - 0.0
26/07:00am 17.1 14.1 7.7 54 5.1 WNW 13 28 7 15 - - 0.0
26/06:30am 15.6 12.3 8.1 61 4.0 WNW 15 20 8 11 - - 0.0
26/06:00am 14.9 9.9 8.2 64 3.6 WNW 24 37 13 20 - - 0.0
26/05:30am 14.7 11.4 8.0 64 3.6 WNW 15 26 8 14 - - 0.0
26/05:00am 13.8 10.8 7.8 67 3.2 NW 13 17 7 9 - - 0.0
26/04:30am 13.9 10.9 7.9 67 3.2 NNW 13 17 7 9 - - 0.0
26/04:00am 13.2 10.7 8.3 72 2.6 N 11 15 6 8 - - 0.0
26/03:30am 11.9 9.8 8.4 79 1.9 NNW 9 13 5 7 - - 0.0
26/03:00am 11.0 8.9 8.1 82 1.5 NW 9 11 5 6 - - 0.0
26/02:30am 11.0 8.2 6.9 76 2.1 NW 11 13 6 7 - - 0.0
26/02:00am 12.7 9.9 8.4 75 2.3 WNW 13 15 7 8 - - 0.0
26/01:30am 13.5 10.3 8.6 72 2.6 WNW 15 17 8 9 - - 0.0
26/01:00am 14.0 10.5 8.8 71 2.8 WNW 17 22 9 12 - - 0.0
26/12:30am 13.2 11.3 10.4 83 1.6 N 11 13 6 7 - - 0.0
26/12:00am 12.8 11.5 9.3 79 1.9 N 6 11 3 6 - - 0.0
 
Date/Time
EDT
Temp
°C
App
Temp
°C
Dew
Point
°C
Rel
Hum
%
Delta-T
°C
Wind Press
QNH
hPa
Press
MSL
hPa
Rain since
9am
mm
Dir  Spd
km/h
Gust
km/h
Spd
kts
Gust
kts
25/11:30pm 13.9 11.8 9.9 77 2.2 NW 11 17 6 9 - - 0.0
25/11:00pm 14.0 11.4 10.6 80 1.9 WNW 15 19 8 10 - - 0.0
25/10:30pm 14.5 12.0 10.9 79 2.0 WNW 15 20 8 11 - - 0.0
25/10:00pm 15.2 11.9 11.0 76 2.4 W 19 24 10 13 - - 0.0
25/09:30pm 14.9 12.0 11.1 78 2.2 WNW 17 24 9 13 - - 0.0
25/09:00pm 15.1 12.2 11.1 77 2.3 WNW 17 22 9 12 - - 0.0
25/08:30pm 15.9 12.5 10.7 71 2.9 W 19 24 10 13 - - 0.0
25/08:00pm 16.4 13.0 10.5 68 3.3 WNW 19 26 10 14 - - 0.0
25/07:30pm 17.3 14.6 10.2 63 4.0 W 15 17 8 9 - - 0.0
25/07:00pm 19.3 16.3 10.8 58 4.9 NW 17 20 9 11 - - 0.0
25/06:30pm 20.2 17.4 11.4 57 5.2 WNW 17 22 9 12 - - 0.0
25/06:00pm 20.5 17.6 10.9 54 5.6 WNW 17 22 9 12 - - 0.0
25/05:30pm 20.9 17.7 11.3 54 5.6 WNW 19 39 10 21 1013.9 1010.4 0.0
25/05:00pm 21.4 18.9 11.1 52 6.0 WNW 15 30 8 16 1014.0 1010.6 0.0
25/04:30pm 21.5 18.3 10.0 48 6.6 WNW 17 22 9 12 1014.0 1010.6 0.0
25/04:00pm 21.8 19.3 11.2 51 6.2 WNW 15 22 8 12 1013.9 1010.4 0.0
25/03:30pm 21.9 18.7 9.8 46 7.0 WNW 17 26 9 14 1014.0 1010.6 0.0
25/03:00pm 22.0 19.6 9.9 46 7.0 W 13 22 7 12 1014.0 1010.6 0.0
25/02:30pm 21.1 18.8 10.6 51 6.1 W 13 26 7 14 1014.2 1010.7 0.0
25/02:00pm 21.1 18.1 10.6 51 6.1 WNW 17 28 9 15 1014.3 1010.8 0.0
25/01:30pm 21.2 18.1 11.5 54 5.7 NNW 19 26 10 14 1014.4 1010.9 0.0
25/01:00pm 21.0 18.1 11.1 53 5.8 NW 17 24 9 13 1014.6 1011.1 0.0
25/12:30pm 20.3 16.8 10.1 52 5.8 NW 19 33 10 18 1014.8 1011.4 0.0
25/12:00pm 20.2 17.6 10.6 54 5.6 NW 15 24 8 13 1015.1 1011.6 0.0
25/11:30am 19.1 16.2 8.1 49 6.0 NW 13 24 7 13 1015.2 1011.7 0.0
25/11:00am 18.8 15.5 9.6 55 5.2 WNW 17 24 9 13 1015.2 1011.7 0.0
25/10:30am 18.4 15.6 8.7 53 5.4 NW 13 24 7 13 1015.2 1011.7 0.0
25/10:00am 18.0 14.1 8.6 54 5.2 NW 19 24 10 13 1015.3 1011.8 0.0
25/09:30am 17.3 12.6 7.9 54 5.1 WNW 22 28 12 15 1015.1 1011.6 0.0
25/09:00am 16.3 13.6 8.8 61 4.1 NW 13 19 7 10 1015.1 1011.6 0.0
25/08:30am 14.3 13.1 9.5 73 2.6 N 6 11 3 6 1015.1 1011.6 0.0
25/08:00am 11.6 10.8 9.5 87 1.1 N 4 6 2 3 1015.1 1011.6 0.0
25/07:42am 10.8 10.3 10.6 99 0.1 NE 4 6 2 3 1014.8 1011.4 0.0
25/07:35am 10.8 10.3 10.8 100 0.0 NE 4 6 2 3 1014.7 1011.3 0.0
25/07:30am 10.0 9.7 10.0 100 0.0 NE 2 6 1 3 1014.8 1011.4 0.0

Other formats

Comma delimited format used in spreadsheet applications
http://www.bom.gov.au/fwo/IDV60801/IDV60801.94905.axf

JavaScript Object Notation format (JSON) in row-major order
http://www.bom.gov.au/fwo/IDV60801/IDV60801.94905.json

Data quality

Most of these data are generated automatically and are frequently updated. Quality checks on data are not normally performed. It is possible for incorrect values to appear. Refer to information at About Latest Weather Observations and please check the disclaimer before using these data.